sensor_id;sensor_type;location;lat;lon;timestamp;pressure;altitude;pressure_sealevel;temperature;humidity
35989;BME280;22064;42.672;23.282;2023-03-08T00:00:40;93848.69;;;6.25;100.00
35989;BME280;22064;42.672;23.282;2023-03-08T00:03:08;93849.66;;;6.36;100.00
35989;BME280;22064;42.672;23.282;2023-03-08T00:05:37;93848.13;;;6.23;100.00
35989;BME280;22064;42.672;23.282;2023-03-08T00:08:03;93848.94;;;6.23;100.00
35989;BME280;22064;42.672;23.282;2023-03-08T00:10:29;93827.31;;;6.13;100.00
35989;BME280;22064;42.672;23.282;2023-03-08T00:12:54;93850.72;;;6.06;100.00
35989;BME280;22064;42.672;23.282;2023-03-08T00:15:20;93860.16;;;6.00;100.00
35989;BME280;22064;42.672;23.282;2023-03-08T00:17:46;93850.28;;;5.97;100.00
35989;BME280;22064;42.672;23.282;2023-03-08T00:20:12;93853.25;;;5.89;100.00
35989;BME280;22064;42.672;23.282;2023-03-08T00:22:39;93856.72;;;5.95;100.00
35989;BME280;22064;42.672;23.282;2023-03-08T00:25:07;93862.81;;;5.89;100.00
35989;BME280;22064;42.672;23.282;2023-03-08T00:27:35;93846.47;;;6.00;100.00
35989;BME280;22064;42.672;23.282;2023-03-08T00:30:03;93862.13;;;5.93;100.00
35989;BME280;22064;42.672;23.282;2023-03-08T00:32:30;93861.41;;;5.98;100.00
35989;BME280;22064;42.672;23.282;2023-03-08T00:34:57;93844.44;;;6.02;100.00
35989;BME280;22064;42.672;23.282;2023-03-08T00:37:23;93848.75;;;5.85;100.00
35989;BME280;22064;42.672;23.282;2023-03-08T00:39:52;93844.81;;;5.82;100.00
35989;BME280;22064;42.672;23.282;2023-03-08T00:42:22;93846.63;;;5.82;100.00
35989;BME280;22064;42.672;23.282;2023-03-08T00:44:49;93843.31;;;5.69;100.00
35989;BME280;22064;42.672;23.282;2023-03-08T00:47:15;93839.53;;;5.89;100.00
35989;BME280;22064;42.672;23.282;2023-03-08T00:49:42;93843.84;;;5.83;100.00
35989;BME280;22064;42.672;23.282;2023-03-08T00:52:08;93849.34;;;5.75;100.00
35989;BME280;22064;42.672;23.282;2023-03-08T00:54:36;93849.16;;;5.76;100.00
35989;BME280;22064;42.672;23.282;2023-03-08T00:57:02;93833.88;;;5.75;100.00
35989;BME280;22064;42.672;23.282;2023-03-08T00:59:29;93856.03;;;5.59;100.00
35989;BME280;22064;42.672;23.282;2023-03-08T01:01:56;93843.78;;;5.66;100.00
35989;BME280;22064;42.672;23.282;2023-03-08T01:04:23;93844.28;;;5.51;100.00
35989;BME280;22064;42.672;23.282;2023-03-08T01:06:50;93859.56;;;5.41;100.00
35989;BME280;22064;42.672;23.282;2023-03-08T01:09:16;93846.31;;;5.49;100.00
35989;BME280;22064;42.672;23.282;2023-03-08T01:11:42;93846.91;;;5.40;100.00
35989;BME280;22064;42.672;23.282;2023-03-08T01:14:09;93852.59;;;5.42;100.00
35989;BME280;22064;42.672;23.282;2023-03-08T01:16:35;93850.00;;;5.53;100.00
35989;BME280;22064;42.672;23.282;2023-03-08T01:19:02;93860.81;;;5.39;100.00
35989;BME280;22064;42.672;23.282;2023-03-08T01:21:30;93844.75;;;5.48;100.00
35989;BME280;22064;42.672;23.282;2023-03-08T01:23:57;93861.50;;;5.34;100.00
35989;BME280;22064;42.672;23.282;2023-03-08T01:26:26;93863.94;;;5.41;100.00
35989;BME280;22064;42.672;23.282;2023-03-08T01:28:55;93863.47;;;5.55;100.00
35989;BME280;22064;42.672;23.282;2023-03-08T01:31:23;93863.16;;;5.52;100.00
35989;BME280;22064;42.672;23.282;2023-03-08T01:33:51;93866.66;;;5.34;100.00
35989;BME280;22064;42.672;23.282;2023-03-08T01:36:20;93867.75;;;5.38;100.00
35989;BME280;22064;42.672;23.282;2023-03-08T01:38:46;93858.91;;;5.46;100.00
35989;BME280;22064;42.672;23.282;2023-03-08T01:41:19;93845.31;;;5.39;100.00
35989;BME280;22064;42.672;23.282;2023-03-08T01:43:45;93831.88;;;5.25;100.00
35989;BME280;22064;42.672;23.282;2023-03-08T01:46:31;93858.59;;;5.30;100.00
35989;BME280;22064;42.672;23.282;2023-03-08T01:54:30;93862.56;;;4.74;100.00
35989;BME280;22064;42.672;23.282;2023-03-08T01:57:01;93866.25;;;4.78;100.00
35989;BME280;22064;42.672;23.282;2023-03-08T01:59:29;93859.19;;;4.62;100.00
35989;BME280;22064;42.672;23.282;2023-03-08T02:01:57;93857.28;;;4.46;100.00
35989;BME280;22064;42.672;23.282;2023-03-08T02:04:25;93852.00;;;4.40;100.00
35989;BME280;22064;42.672;23.282;2023-03-08T02:06:51;93856.59;;;4.50;100.00
35989;BME280;22064;42.672;23.282;2023-03-08T02:09:21;93855.59;;;4.63;100.00
35989;BME280;22064;42.672;23.282;2023-03-08T02:11:48;93850.91;;;4.60;100.00
35989;BME280;22064;42.672;23.282;2023-03-08T02:14:14;93860.19;;;4.37;100.00
35989;BME280;22064;42.672;23.282;2023-03-08T02:16:43;93853.47;;;4.48;100.00
35989;BME280;22064;42.672;23.282;2023-03-08T02:19:26;93857.59;;;4.37;100.00
35989;BME280;22064;42.672;23.282;2023-03-08T02:21:53;93866.00;;;4.33;100.00
35989;BME280;22064;42.672;23.282;2023-03-08T02:24:21;93839.34;;;4.27;100.00
35989;BME280;22064;42.672;23.282;2023-03-08T02:26:50;93851.97;;;4.29;100.00
35989;BME280;22064;42.672;23.282;2023-03-08T02:29:17;93864.09;;;4.28;100.00
35989;BME280;22064;42.672;23.282;2023-03-08T02:31:43;93862.97;;;4.36;100.00
35989;BME280;22064;42.672;23.282;2023-03-08T02:34:09;93860.84;;;4.33;100.00
35989;BME280;22064;42.672;23.282;2023-03-08T02:36:35;93872.16;;;4.32;100.00
35989;BME280;22064;42.672;23.282;2023-03-08T02:39:01;93863.78;;;4.36;100.00
35989;BME280;22064;42.672;23.282;2023-03-08T02:41:27;93861.66;;;4.33;100.00
35989;BME280;22064;42.672;23.282;2023-03-08T02:43:53;93855.81;;;4.38;100.00
35989;BME280;22064;42.672;23.282;2023-03-08T02:46:19;93880.34;;;4.29;100.00
35989;BME280;22064;42.672;23.282;2023-03-08T02:48:45;93873.28;;;4.24;100.00
35989;BME280;22064;42.672;23.282;2023-03-08T02:51:11;93873.94;;;4.31;100.00
35989;BME280;22064;42.672;23.282;2023-03-08T02:53:37;93887.38;;;4.22;100.00
35989;BME280;22064;42.672;23.282;2023-03-08T02:56:03;93885.16;;;4.25;100.00
35989;BME280;22064;42.672;23.282;2023-03-08T02:58:29;93871.59;;;4.18;100.00
35989;BME280;22064;42.672;23.282;2023-03-08T03:00:56;93884.31;;;4.13;100.00
35989;BME280;22064;42.672;23.282;2023-03-08T03:03:22;93880.28;;;4.17;100.00
35989;BME280;22064;42.672;23.282;2023-03-08T03:05:50;93893.00;;;4.30;100.00
35989;BME280;22064;42.672;23.282;2023-03-08T03:08:21;93873.00;;;4.14;100.00
35989;BME280;22064;42.672;23.282;2023-03-08T03:10:47;93893.56;;;4.21;100.00
35989;BME280;22064;42.672;23.282;2023-03-08T03:13:13;93891.31;;;4.36;100.00
35989;BME280;22064;42.672;23.282;2023-03-08T03:15:39;93891.78;;;4.45;100.00
35989;BME280;22064;42.672;23.282;2023-03-08T03:18:05;93894.09;;;4.23;100.00
35989;BME280;22064;42.672;23.282;2023-03-08T03:20:32;93890.06;;;4.27;100.00
35989;BME280;22064;42.672;23.282;2023-03-08T03:22:58;93883.78;;;4.23;100.00
35989;BME280;22064;42.672;23.282;2023-03-08T03:25:36;93904.50;;;4.16;100.00
35989;BME280;22064;42.672;23.282;2023-03-08T03:28:03;93904.38;;;4.11;100.00
35989;BME280;22064;42.672;23.282;2023-03-08T03:30:30;93907.38;;;4.08;100.00
35989;BME280;22064;42.672;23.282;2023-03-08T03:32:57;93895.50;;;4.07;100.00
35989;BME280;22064;42.672;23.282;2023-03-08T03:35:27;93898.38;;;3.99;100.00
35989;BME280;22064;42.672;23.282;2023-03-08T03:37:54;93908.56;;;3.93;100.00
35989;BME280;22064;42.672;23.282;2023-03-08T03:40:20;93906.41;;;4.09;100.00
35989;BME280;22064;42.672;23.282;2023-03-08T03:42:52;93900.09;;;4.05;100.00
35989;BME280;22064;42.672;23.282;2023-03-08T03:45:18;93900.09;;;4.05;100.00
35989;BME280;22064;42.672;23.282;2023-03-08T03:47:44;93906.50;;;4.14;100.00
35989;BME280;22064;42.672;23.282;2023-03-08T03:50:12;93890.59;;;3.75;100.00
35989;BME280;22064;42.672;23.282;2023-03-08T03:52:53;93898.31;;;3.57;100.00
35989;BME280;22064;42.672;23.282;2023-03-08T03:55:19;93907.38;;;3.78;100.00
35989;BME280;22064;42.672;23.282;2023-03-08T03:57:45;93905.50;;;3.85;100.00
35989;BME280;22064;42.672;23.282;2023-03-08T04:00:15;93904.72;;;3.84;100.00
35989;BME280;22064;42.672;23.282;2023-03-08T04:02:46;93911.34;;;3.92;100.00
35989;BME280;22064;42.672;23.282;2023-03-08T04:05:14;93916.66;;;3.97;100.00
35989;BME280;22064;42.672;23.282;2023-03-08T04:07:45;93905.47;;;4.03;100.00
35989;BME280;22064;42.672;23.282;2023-03-08T04:10:11;93918.88;;;3.93;100.00
35989;BME280;22064;42.672;23.282;2023-03-08T04:12:37;93925.81;;;3.93;100.00
35989;BME280;22064;42.672;23.282;2023-03-08T04:15:04;93924.88;;;4.06;100.00
35989;BME280;22064;42.672;23.282;2023-03-08T04:17:31;93923.50;;;4.03;100.00
35989;BME280;22064;42.672;23.282;2023-03-08T04:19:57;93918.09;;;3.93;100.00
35989;BME280;22064;42.672;23.282;2023-03-08T04:22:23;93916.91;;;4.07;100.00
35989;BME280;22064;42.672;23.282;2023-03-08T04:25:00;93916.50;;;3.92;100.00
35989;BME280;22064;42.672;23.282;2023-03-08T04:27:35;93929.88;;;4.01;100.00
35989;BME280;22064;42.672;23.282;2023-03-08T04:30:02;93921.72;;;4.04;100.00
35989;BME280;22064;42.672;23.282;2023-03-08T04:32:31;93934.16;;;4.07;100.00
35989;BME280;22064;42.672;23.282;2023-03-08T04:34:57;93924.50;;;4.02;100.00
35989;BME280;22064;42.672;23.282;2023-03-08T04:37:26;93921.94;;;4.02;100.00
35989;BME280;22064;42.672;23.282;2023-03-08T04:39:56;93923.00;;;3.94;100.00
35989;BME280;22064;42.672;23.282;2023-03-08T04:42:23;93923.16;;;4.00;100.00
35989;BME280;22064;42.672;23.282;2023-03-08T04:44:49;93915.91;;;4.08;100.00
35989;BME280;22064;42.672;23.282;2023-03-08T04:47:19;93916.94;;;4.19;100.00
35989;BME280;22064;42.672;23.282;2023-03-08T04:49:45;93918.94;;;4.17;100.00
35989;BME280;22064;42.672;23.282;2023-03-08T04:52:12;93925.56;;;4.13;100.00
35989;BME280;22064;42.672;23.282;2023-03-08T04:54:39;93931.72;;;4.12;100.00
35989;BME280;22064;42.672;23.282;2023-03-08T04:57:25;93929.88;;;4.01;100.00
35989;BME280;22064;42.672;23.282;2023-03-08T04:59:54;93927.09;;;4.02;100.00
35989;BME280;22064;42.672;23.282;2023-03-08T05:02:21;93945.06;;;3.90;100.00
35989;BME280;22064;42.672;23.282;2023-03-08T05:04:48;93937.72;;;3.76;100.00
35989;BME280;22064;42.672;23.282;2023-03-08T05:07:14;93944.84;;;3.74;100.00
35989;BME280;22064;42.672;23.282;2023-03-08T05:09:41;93943.97;;;3.98;100.00
35989;BME280;22064;42.672;23.282;2023-03-08T05:12:07;93955.22;;;3.67;100.00
35989;BME280;22064;42.672;23.282;2023-03-08T05:14:49;93949.00;;;3.93;100.00
35989;BME280;22064;42.672;23.282;2023-03-08T05:17:15;93960.63;;;3.96;100.00
35989;BME280;22064;42.672;23.282;2023-03-08T05:19:41;93964.38;;;4.00;100.00
35989;BME280;22064;42.672;23.282;2023-03-08T05:22:08;93954.25;;;4.16;100.00
35989;BME280;22064;42.672;23.282;2023-03-08T05:24:40;93969.00;;;4.09;100.00
35989;BME280;22064;42.672;23.282;2023-03-08T05:27:08;93975.53;;;4.12;100.00
35989;BME280;22064;42.672;23.282;2023-03-08T05:29:34;93980.72;;;4.24;100.00
35989;BME280;22064;42.672;23.282;2023-03-08T05:32:03;93981.50;;;4.24;100.00
35989;BME280;22064;42.672;23.282;2023-03-08T05:34:30;93980.75;;;4.35;100.00
35989;BME280;22064;42.672;23.282;2023-03-08T05:36:57;93988.63;;;4.40;100.00
35989;BME280;22064;42.672;23.282;2023-03-08T05:39:24;93993.25;;;4.50;100.00
35989;BME280;22064;42.672;23.282;2023-03-08T05:42:00;93993.28;;;4.32;100.00
35989;BME280;22064;42.672;23.282;2023-03-08T05:44:33;93998.88;;;4.59;100.00
35989;BME280;22064;42.672;23.282;2023-03-08T05:47:00;93996.00;;;4.79;100.00
35989;BME280;22064;42.672;23.282;2023-03-08T05:49:27;94000.72;;;4.82;100.00
35989;BME280;22064;42.672;23.282;2023-03-08T05:51:53;94007.22;;;4.84;100.00
35989;BME280;22064;42.672;23.282;2023-03-08T05:54:21;93995.59;;;4.94;100.00
35989;BME280;22064;42.672;23.282;2023-03-08T05:56:50;94001.44;;;4.89;100.00
35989;BME280;22064;42.672;23.282;2023-03-08T05:59:25;94001.53;;;4.94;100.00
35989;BME280;22064;42.672;23.282;2023-03-08T06:01:53;93993.56;;;5.07;100.00
35989;BME280;22064;42.672;23.282;2023-03-08T06:04:42;93999.41;;;5.26;100.00
35989;BME280;22064;42.672;23.282;2023-03-08T06:07:09;94018.53;;;5.49;100.00
35989;BME280;22064;42.672;23.282;2023-03-08T06:09:40;94017.06;;;5.53;100.00
35989;BME280;22064;42.672;23.282;2023-03-08T06:12:10;94019.28;;;5.73;100.00
35989;BME280;22064;42.672;23.282;2023-03-08T06:14:36;94011.28;;;5.98;100.00
35989;BME280;22064;42.672;23.282;2023-03-08T06:17:02;94026.56;;;6.11;100.00
35989;BME280;22064;42.672;23.282;2023-03-08T06:19:31;94020.38;;;6.12;100.00
35989;BME280;22064;42.672;23.282;2023-03-08T06:21:57;94028.31;;;6.22;100.00
35989;BME280;22064;42.672;23.282;2023-03-08T06:24:23;94034.50;;;6.33;100.00
35989;BME280;22064;42.672;23.282;2023-03-08T06:26:49;94032.88;;;6.44;100.00
35989;BME280;22064;42.672;23.282;2023-03-08T06:29:16;94033.53;;;6.51;100.00
35989;BME280;22064;42.672;23.282;2023-03-08T06:31:43;94034.91;;;6.70;100.00
35989;BME280;22064;42.672;23.282;2023-03-08T06:34:10;94041.28;;;6.97;100.00
35989;BME280;22064;42.672;23.282;2023-03-08T06:36:36;94040.59;;;7.01;100.00
35989;BME280;22064;42.672;23.282;2023-03-08T06:39:02;94036.47;;;6.88;100.00
35989;BME280;22064;42.672;23.282;2023-03-08T06:41:30;94050.00;;;6.90;100.00
35989;BME280;22064;42.672;23.282;2023-03-08T06:43:59;94053.47;;;6.96;100.00
35989;BME280;22064;42.672;23.282;2023-03-08T06:46:25;94052.63;;;7.07;100.00
35989;BME280;22064;42.672;23.282;2023-03-08T06:48:51;94049.16;;;7.02;100.00
35989;BME280;22064;42.672;23.282;2023-03-08T06:51:17;94061.78;;;7.32;100.00
35989;BME280;22064;42.672;23.282;2023-03-08T06:53:45;94075.38;;;7.39;100.00
35989;BME280;22064;42.672;23.282;2023-03-08T06:56:14;94051.59;;;7.42;100.00
35989;BME280;22064;42.672;23.282;2023-03-08T06:58:41;94075.44;;;7.78;100.00
35989;BME280;22064;42.672;23.282;2023-03-08T07:01:08;94078.66;;;7.85;100.00
35989;BME280;22064;42.672;23.282;2023-03-08T07:03:35;94071.97;;;7.89;100.00
35989;BME280;22064;42.672;23.282;2023-03-08T07:06:05;94075.03;;;8.25;100.00
35989;BME280;22064;42.672;23.282;2023-03-08T07:08:31;94082.50;;;8.60;100.00
35989;BME280;22064;42.672;23.282;2023-03-08T07:10:57;94086.91;;;8.87;100.00
35989;BME280;22064;42.672;23.282;2023-03-08T07:13:24;94087.34;;;9.06;100.00
35989;BME280;22064;42.672;23.282;2023-03-08T07:15:50;94091.13;;;9.20;100.00
35989;BME280;22064;42.672;23.282;2023-03-08T07:18:18;94091.31;;;9.40;100.00
35989;BME280;22064;42.672;23.282;2023-03-08T07:20:44;94086.28;;;9.61;100.00
35989;BME280;22064;42.672;23.282;2023-03-08T07:23:10;94077.81;;;9.81;100.00
35989;BME280;22064;42.672;23.282;2023-03-08T07:25:39;94088.06;;;9.92;100.00
35989;BME280;22064;42.672;23.282;2023-03-08T07:28:05;94072.56;;;10.13;100.00
35989;BME280;22064;42.672;23.282;2023-03-08T07:30:31;94087.66;;;10.11;100.00
35989;BME280;22064;42.672;23.282;2023-03-08T07:32:57;94087.25;;;10.29;100.00
35989;BME280;22064;42.672;23.282;2023-03-08T07:35:23;94091.16;;;10.32;100.00
35989;BME280;22064;42.672;23.282;2023-03-08T07:37:49;94085.09;;;10.16;100.00
35989;BME280;22064;42.672;23.282;2023-03-08T07:40:16;94074.28;;;10.39;100.00
35989;BME280;22064;42.672;23.282;2023-03-08T07:42:42;94092.13;;;10.78;100.00
35989;BME280;22064;42.672;23.282;2023-03-08T07:45:21;94079.66;;;10.85;99.61
35989;BME280;22064;42.672;23.282;2023-03-08T07:47:49;94083.81;;;10.86;96.64
35989;BME280;22064;42.672;23.282;2023-03-08T07:50:18;94081.91;;;10.56;99.56
35989;BME280;22064;42.672;23.282;2023-03-08T07:52:44;94084.28;;;10.63;99.35
35989;BME280;22064;42.672;23.282;2023-03-08T07:55:10;94091.88;;;10.80;95.46
35989;BME280;22064;42.672;23.282;2023-03-08T07:57:36;94092.38;;;10.77;96.70
35989;BME280;22064;42.672;23.282;2023-03-08T08:00:03;94084.88;;;10.85;94.86
35989;BME280;22064;42.672;23.282;2023-03-08T08:02:37;94090.06;;;10.85;93.09
35989;BME280;22064;42.672;23.282;2023-03-08T08:05:04;94092.91;;;10.84;93.13
35989;BME280;22064;42.672;23.282;2023-03-08T08:07:31;94092.19;;;10.99;91.36
35989;BME280;22064;42.672;23.282;2023-03-08T08:09:57;94089.63;;;11.09;88.49
35989;BME280;22064;42.672;23.282;2023-03-08T08:12:23;94073.19;;;11.08;89.36
35989;BME280;22064;42.672;23.282;2023-03-08T08:14:51;94081.03;;;11.24;86.54
35989;BME280;22064;42.672;23.282;2023-03-08T08:17:21;94093.78;;;11.20;87.07
35989;BME280;22064;42.672;23.282;2023-03-08T08:19:47;94105.00;;;11.21;88.06
35989;BME280;22064;42.672;23.282;2023-03-08T08:22:13;94096.16;;;11.37;85.31
35989;BME280;22064;42.672;23.282;2023-03-08T08:24:39;94102.69;;;11.60;82.52
35989;BME280;22064;42.672;23.282;2023-03-08T08:27:05;94100.06;;;11.55;81.33
35989;BME280;22064;42.672;23.282;2023-03-08T08:29:31;94108.41;;;11.52;80.35
35989;BME280;22064;42.672;23.282;2023-03-08T08:31:57;94107.91;;;11.55;79.91
35989;BME280;22064;42.672;23.282;2023-03-08T08:34:23;94107.38;;;11.48;82.80
35989;BME280;22064;42.672;23.282;2023-03-08T08:36:49;94104.78;;;11.58;79.95
35989;BME280;22064;42.672;23.282;2023-03-08T08:39:15;94103.75;;;11.90;76.60
35989;BME280;22064;42.672;23.282;2023-03-08T08:41:41;94097.44;;;12.16;72.89
35989;BME280;22064;42.672;23.282;2023-03-08T08:44:07;94100.00;;;12.42;69.58
35989;BME280;22064;42.672;23.282;2023-03-08T08:46:33;94097.88;;;12.54;67.08
35989;BME280;22064;42.672;23.282;2023-03-08T08:49:01;94097.13;;;12.43;69.13
35989;BME280;22064;42.672;23.282;2023-03-08T08:51:27;94095.44;;;12.73;66.85
35989;BME280;22064;42.672;23.282;2023-03-08T08:53:53;94092.69;;;12.99;64.54
35989;BME280;22064;42.672;23.282;2023-03-08T08:56:21;94087.75;;;13.02;63.84
35989;BME280;22064;42.672;23.282;2023-03-08T08:58:48;94095.59;;;13.02;63.20
35989;BME280;22064;42.672;23.282;2023-03-08T09:01:16;94087.53;;;12.83;63.00
35989;BME280;22064;42.672;23.282;2023-03-08T09:03:44;94099.81;;;12.93;63.16
35989;BME280;22064;42.672;23.282;2023-03-08T09:06:11;94100.63;;;13.33;61.83
35989;BME280;22064;42.672;23.282;2023-03-08T09:08:37;94091.69;;;13.44;60.85
35989;BME280;22064;42.672;23.282;2023-03-08T09:11:05;94096.38;;;13.42;60.40
35989;BME280;22064;42.672;23.282;2023-03-08T09:13:31;94103.56;;;13.26;60.56
35989;BME280;22064;42.672;23.282;2023-03-08T09:15:58;94088.59;;;13.37;60.39
35989;BME280;22064;42.672;23.282;2023-03-08T09:18:24;94089.09;;;13.73;59.54
35989;BME280;22064;42.672;23.282;2023-03-08T09:20:50;94088.78;;;13.80;57.79
35989;BME280;22064;42.672;23.282;2023-03-08T09:23:16;94085.59;;;13.83;57.59
35989;BME280;22064;42.672;23.282;2023-03-08T09:25:42;94081.09;;;13.59;58.03
35989;BME280;22064;42.672;23.282;2023-03-08T09:28:10;94082.59;;;13.71;57.99
35989;BME280;22064;42.672;23.282;2023-03-08T09:30:37;94080.34;;;13.88;57.68
35989;BME280;22064;42.672;23.282;2023-03-08T09:33:02;94079.97;;;14.00;56.05
35989;BME280;22064;42.672;23.282;2023-03-08T09:35:29;94078.84;;;13.48;57.53
35989;BME280;22064;42.672;23.282;2023-03-08T09:37:55;94070.41;;;13.56;57.81
35989;BME280;22064;42.672;23.282;2023-03-08T09:40:25;94074.66;;;13.47;58.25
35989;BME280;22064;42.672;23.282;2023-03-08T09:42:57;94073.78;;;13.61;58.40
35989;BME280;22064;42.672;23.282;2023-03-08T09:45:28;94074.88;;;13.55;56.97
35989;BME280;22064;42.672;23.282;2023-03-08T09:55:33;94054.25;;;12.60;63.02
35989;BME280;22064;42.672;23.282;2023-03-08T09:58:04;94049.06;;;12.50;62.69
35989;BME280;22064;42.672;23.282;2023-03-08T10:00:36;94053.09;;;12.11;67.89
35989;BME280;22064;42.672;23.282;2023-03-08T10:11:36;94046.88;;;11.76;76.22
35989;BME280;22064;42.672;23.282;2023-03-08T10:14:19;94050.78;;;11.59;76.71
35989;BME280;22064;42.672;23.282;2023-03-08T10:16:51;94052.63;;;11.63;76.28
35989;BME280;22064;42.672;23.282;2023-03-08T10:19:34;94043.00;;;11.53;76.12
35989;BME280;22064;42.672;23.282;2023-03-08T10:22:24;94029.13;;;11.73;75.33
35989;BME280;22064;42.672;23.282;2023-03-08T10:25:19;94039.41;;;12.50;70.59
35989;BME280;22064;42.672;23.282;2023-03-08T10:27:47;94051.03;;;13.17;65.25
35989;BME280;22064;42.672;23.282;2023-03-08T10:30:18;94045.72;;;13.67;60.53
35989;BME280;22064;42.672;23.282;2023-03-08T10:32:48;94039.72;;;13.32;61.26
35989;BME280;22064;42.672;23.282;2023-03-08T10:35:15;94029.78;;;13.63;60.71
35989;BME280;22064;42.672;23.282;2023-03-08T10:37:41;94041.94;;;14.07;59.61
35989;BME280;22064;42.672;23.282;2023-03-08T10:40:14;94042.78;;;14.51;56.80
35989;BME280;22064;42.672;23.282;2023-03-08T10:42:48;94036.53;;;13.99;54.63
35989;BME280;22064;42.672;23.282;2023-03-08T10:45:19;94027.88;;;14.27;49.85
35989;BME280;22064;42.672;23.282;2023-03-08T10:48:02;94016.88;;;14.01;49.05
35989;BME280;22064;42.672;23.282;2023-03-08T10:50:31;93999.91;;;13.99;48.02
35989;BME280;22064;42.672;23.282;2023-03-08T10:53:16;94019.81;;;13.71;49.23
35989;BME280;22064;42.672;23.282;2023-03-08T10:55:47;94017.94;;;13.42;49.89
35989;BME280;22064;42.672;23.282;2023-03-08T10:58:34;94012.00;;;13.36;50.41
35989;BME280;22064;42.672;23.282;2023-03-08T11:01:08;93999.78;;;13.22;49.19
35989;BME280;22064;42.672;23.282;2023-03-08T11:06:26;94009.19;;;13.23;49.37
35989;BME280;22064;42.672;23.282;2023-03-08T11:08:55;94008.06;;;12.94;50.42
35989;BME280;22064;42.672;23.282;2023-03-08T11:11:22;94000.16;;;13.44;50.37
35989;BME280;22064;42.672;23.282;2023-03-08T11:13:49;94004.03;;;13.12;50.39
35989;BME280;22064;42.672;23.282;2023-03-08T11:35:50;93957.16;;;13.26;51.29
35989;BME280;22064;42.672;23.282;2023-03-08T11:38:25;93942.75;;;13.29;51.43
35989;BME280;22064;42.672;23.282;2023-03-08T11:41:20;93942.06;;;13.47;50.98
35989;BME280;22064;42.672;23.282;2023-03-08T11:58:33;93936.09;;;13.71;48.62
35989;BME280;22064;42.672;23.282;2023-03-08T12:01:06;93917.09;;;13.84;47.98
35989;BME280;22064;42.672;23.282;2023-03-08T12:03:38;93925.38;;;13.91;47.95
35989;BME280;22064;42.672;23.282;2023-03-08T12:06:26;93925.03;;;14.41;46.78
35989;BME280;22064;42.672;23.282;2023-03-08T12:08:58;93944.28;;;14.31;46.16
35989;BME280;22064;42.672;23.282;2023-03-08T12:11:30;93916.94;;;13.99;46.97
35989;BME280;22064;42.672;23.282;2023-03-08T12:14:03;93928.84;;;14.48;45.73
35989;BME280;22064;42.672;23.282;2023-03-08T12:19:29;93922.63;;;14.82;46.24
35989;BME280;22064;42.672;23.282;2023-03-08T12:22:04;93915.50;;;14.69;46.07
35989;BME280;22064;42.672;23.282;2023-03-08T12:27:08;93942.44;;;14.50;46.74
35989;BME280;22064;42.672;23.282;2023-03-08T12:29:48;93942.56;;;14.64;46.71
35989;BME280;22064;42.672;23.282;2023-03-08T12:32:16;93933.31;;;14.48;46.28
35989;BME280;22064;42.672;23.282;2023-03-08T12:34:45;93928.75;;;14.77;46.33
35989;BME280;22064;42.672;23.282;2023-03-08T12:37:24;93928.38;;;15.17;45.40
35989;BME280;22064;42.672;23.282;2023-03-08T12:42:31;93919.91;;;15.53;43.03
35989;BME280;22064;42.672;23.282;2023-03-08T12:45:24;93908.09;;;15.69;42.95
35989;BME280;22064;42.672;23.282;2023-03-08T12:50:29;93923.56;;;14.72;42.57
35989;BME280;22064;42.672;23.282;2023-03-08T12:52:56;93908.03;;;14.95;43.86
35989;BME280;22064;42.672;23.282;2023-03-08T12:55:26;93901.31;;;15.35;43.02
35989;BME280;22064;42.672;23.282;2023-03-08T12:58:01;93913.25;;;14.95;43.43
35989;BME280;22064;42.672;23.282;2023-03-08T13:00:35;93914.72;;;14.87;43.95
35989;BME280;22064;42.672;23.282;2023-03-08T13:05:38;93910.03;;;14.27;45.69
35989;BME280;22064;42.672;23.282;2023-03-08T13:08:18;93913.56;;;14.37;46.10
35989;BME280;22064;42.672;23.282;2023-03-08T13:11:07;93910.75;;;14.71;44.98
35989;BME280;22064;42.672;23.282;2023-03-08T13:18:44;93888.66;;;15.10;43.73
35989;BME280;22064;42.672;23.282;2023-03-08T13:21:19;93884.34;;;15.46;43.12
35989;BME280;22064;42.672;23.282;2023-03-08T13:23:53;93876.47;;;15.60;43.19
35989;BME280;22064;42.672;23.282;2023-03-08T13:29:32;93886.44;;;16.41;40.69
35989;BME280;22064;42.672;23.282;2023-03-08T13:32:04;93891.84;;;15.39;42.45
35989;BME280;22064;42.672;23.282;2023-03-08T13:34:33;93886.16;;;15.32;42.06
35989;BME280;22064;42.672;23.282;2023-03-08T13:36:59;93880.41;;;15.16;42.50
35989;BME280;22064;42.672;23.282;2023-03-08T13:39:28;93886.34;;;15.68;41.76
35989;BME280;22064;42.672;23.282;2023-03-08T13:42:09;93861.63;;;15.69;41.22
35989;BME280;22064;42.672;23.282;2023-03-08T13:44:36;93886.34;;;15.68;41.30
35989;BME280;22064;42.672;23.282;2023-03-08T13:49:43;93877.09;;;15.11;42.88
35989;BME280;22064;42.672;23.282;2023-03-08T13:52:32;93889.03;;;15.03;43.13
35989;BME280;22064;42.672;23.282;2023-03-08T13:55:04;93865.41;;;14.89;43.56
35989;BME280;22064;42.672;23.282;2023-03-08T13:57:34;93881.91;;;14.90;43.84
35989;BME280;22064;42.672;23.282;2023-03-08T14:00:29;93875.38;;;14.87;44.02
35989;BME280;22064;42.672;23.282;2023-03-08T14:02:57;93875.16;;;15.02;43.47
35989;BME280;22064;42.672;23.282;2023-03-08T14:05:33;93866.25;;;15.17;43.53
35989;BME280;22064;42.672;23.282;2023-03-08T14:08:18;93866.22;;;15.04;43.46
35989;BME280;22064;42.672;23.282;2023-03-08T14:10:53;93862.66;;;15.27;43.24
35989;BME280;22064;42.672;23.282;2023-03-08T14:13:26;93860.25;;;15.31;43.52
35989;BME280;22064;42.672;23.282;2023-03-08T14:16:02;93863.31;;;15.05;43.95
35989;BME280;22064;42.672;23.282;2023-03-08T14:18:39;93877.59;;;14.80;44.61
35989;BME280;22064;42.672;23.282;2023-03-08T14:21:23;93876.72;;;14.85;44.71
35989;BME280;22064;42.672;23.282;2023-03-08T14:23:55;93861.84;;;14.99;44.56